EST,Max TemperatureF,Mean TemperatureF,Min TemperatureF,Max Dew PointF,MeanDew PointF,Min DewpointF,Max Humidity, Mean Humidity, Min Humidity, Max Sea Level PressureIn, Mean Sea Level PressureIn, Min Sea Level PressureIn, Max VisibilityMiles, Mean VisibilityMiles, Min VisibilityMiles, Max Wind SpeedMPH, Mean Wind SpeedMPH, Max Gust SpeedMPH,PrecipitationIn, CloudCover, Events, WindDirDegrees
2013-2-1,72,67,62,57,53,49,73,61,53,30.25,30.20,30.15,10,10,10,20,14,26,0.00,3,,22
2013-2-2,75,70,64,60,56,53,78,65,51,30.23,30.17,30.12,10,10,10,15,11,24,0.00,2,,51
2013-2-3,72,69,66,60,54,50,79,61,51,30.19,30.12,30.08,10,10,10,18,10,25,0.00,3,,6
2013-2-4,75,70,64,59,52,48,76,58,41,30.14,30.07,30.02,10,10,10,15,9,22,0.00,1,,52
2013-2-5,78,71,64,66,62,57,93,73,54,30.07,30.03,30.00,10,10,10,13,6,,0.01,2,,75
2013-2-6,80,72,64,68,65,62,100,80,60,30.10,30.05,30.01,10,9,4,13,3,33,0.01,1,,56
2013-2-7,82,76,71,69,66,64,91,73,58,30.06,30.01,29.96,10,10,10,14,9,,0.01,1,,123
2013-2-8,82,76,71,72,70,68,93,82,65,30.06,30.01,29.96,10,10,10,12,7,,0.00,2,,256
2013-2-9,80,74,69,70,66,61,84,76,69,30.14,30.09,30.04,10,10,10,17,11,,0.00,2,,43
2013-2-10,80,76,73,66,64,62,79,69,54,30.21,30.15,30.11,10,10,10,20,15,25,0.00,2,,102
2013-2-11,81,77,73,69,67,64,84,75,65,30.19,30.13,30.10,10,10,10,18,15,,0.00,2,,115
2013-2-12,81,77,73,72,70,68,87,78,67,30.11,30.05,29.97,10,10,10,14,10,21,0.00,3,,137
2013-2-13,82,78,73,73,72,71,94,83,69,30.03,29.98,29.94,10,10,10,12,6,,0.00,1,,155
2013-2-14,82,74,66,73,70,64,94,84,71,30.00,29.96,29.91,10,9,2,28,11,39,0.50,6,Rain,181
2013-2-15,73,70,66,68,66,64,94,88,79,30.01,29.97,29.93,10,10,3,15,10,21,0.13,8,Rain,37
2013-2-16,73,68,64,68,61,50,94,76,56,30.10,29.97,29.90,10,10,10,23,10,31,0.02,7,Rain,351
2013-2-17,64,58,53,49,41,36,65,52,46,30.30,30.23,30.10,10,10,10,23,18,33,0.00,3,,6
2013-2-18,72,62,53,56,48,36,69,58,47,30.29,30.23,30.17,10,10,10,20,9,24,0.00,2,,68
2013-2-19,79,74,68,68,64,52,93,75,54,30.17,30.13,30.09,10,10,9,13,9,21,0.00,4,Rain,97
2013-2-20,77,72,66,68,66,64,93,83,69,30.11,30.06,30.01,10,10,10,13,7,,0.00,4,,44
2013-2-21,81,75,69,70,68,66,94,82,60,30.07,30.02,29.99,10,10,10,15,8,,0.00,3,,85
2013-2-22,82,78,73,71,71,70,90,83,69,30.08,30.03,29.99,10,10,10,14,10,,0.00,2,,115
2013-2-23,82,78,73,73,72,71,94,83,71,30.02,29.98,29.93,10,10,10,13,9,,0.00,3,,146
2013-2-24,81,76,71,75,72,71,100,87,72,30.01,29.95,29.91,10,9,2,8,3,,0.01,2,,141
2013-2-25,82,78,75,74,73,72,94,83,71,29.91,29.86,29.80,10,10,10,13,8,,0.00,4,,143
2013-2-26,82,78,75,74,72,72,86,79,69,29.93,29.87,29.80,10,10,10,16,11,23,0.00,5,Rain,188
2013-2-27,79,75,71,75,70,63,94,87,73,29.98,29.93,29.89,10,9,1,16,7,21,0.37,7,Rain,342
2013-2-28,73,68,62,66,59,50,84,68,47,30.01,29.97,29.93,10,10,2,15,10,,0.00,7,Rain,5